createdAt,value
2018-08-05T00:02:23.328Z,99.90
2018-08-05T00:05:33.928Z,99.90
2018-08-05T00:08:44.388Z,99.90
2018-08-05T00:11:54.317Z,99.90
2018-08-05T00:15:06.236Z,99.90
2018-08-05T00:18:16.583Z,99.90
2018-08-05T00:21:27.528Z,99.90
2018-08-05T00:24:37.671Z,99.90
2018-08-05T00:27:48.502Z,99.90
2018-08-05T00:30:58.868Z,99.90
2018-08-05T00:34:09.202Z,99.90
2018-08-05T00:37:19.829Z,99.90
2018-08-05T00:40:30.796Z,99.90
2018-08-05T00:43:41.588Z,99.90
2018-08-05T00:46:52.898Z,99.90
2018-08-05T00:50:03.038Z,99.90
2018-08-05T00:53:13.401Z,99.90
2018-08-05T00:56:23.582Z,99.90
2018-08-05T00:59:34.036Z,99.90
2018-08-05T01:02:44.035Z,99.90
2018-08-05T01:05:54.104Z,99.90
2018-08-05T01:09:05.892Z,99.90
2018-08-05T01:12:16.314Z,99.90
2018-08-05T01:15:26.541Z,99.90
2018-08-05T01:18:37.086Z,99.90
2018-08-05T01:21:47.647Z,99.90
2018-08-05T01:24:58.572Z,99.90
2018-08-05T01:28:10.479Z,99.90
2018-08-05T01:31:20.752Z,99.90
2018-08-05T01:34:31.590Z,99.90
2018-08-05T01:37:42.146Z,99.90
2018-08-05T01:40:52.089Z,99.90
2018-08-05T01:44:02.910Z,99.90
2018-08-05T01:47:15.298Z,99.90
2018-08-05T01:50:26.054Z,99.90
2018-08-05T01:53:36.816Z,99.90
2018-08-05T01:56:47.731Z,99.90
2018-08-05T01:59:57.946Z,99.90
2018-08-05T02:03:08.014Z,99.90
2018-08-05T02:06:18.992Z,99.90
2018-08-05T02:09:29.658Z,99.90
2018-08-05T02:12:40.318Z,99.90
2018-08-05T02:15:50.598Z,99.90
2018-08-05T02:19:00.724Z,99.90
2018-08-05T02:22:11.638Z,99.90
2018-08-05T02:25:21.916Z,99.90
2018-08-05T02:28:31.955Z,99.90
2018-08-05T02:31:42.259Z,99.90
2018-08-05T02:34:52.448Z,99.90
2018-08-05T02:38:03.133Z,99.90
2018-08-05T02:41:13.298Z,99.90
2018-08-05T02:44:23.423Z,99.90
2018-08-05T02:47:34.688Z,99.90
2018-08-05T02:50:44.622Z,99.90
2018-08-05T02:53:55.304Z,99.90
2018-08-05T02:57:05.915Z,99.90
2018-08-05T03:00:16.738Z,99.90
2018-08-05T03:03:27.077Z,99.90
2018-08-05T03:06:37.766Z,99.90
2018-08-05T03:09:48.738Z,99.90
2018-08-05T03:12:58.653Z,99.90
2018-08-05T03:16:09.250Z,99.90
2018-08-05T03:19:19.812Z,99.90
2018-08-05T03:22:30.130Z,99.90
2018-08-05T03:25:40.266Z,99.90
2018-08-05T03:28:50.321Z,99.90
2018-08-05T03:32:01.228Z,99.90
2018-08-05T03:35:11.468Z,99.90
2018-08-05T03:38:21.941Z,99.90
2018-08-05T03:41:32.551Z,99.90
2018-08-05T03:44:43.184Z,99.90
2018-08-05T03:47:53.726Z,99.90
2018-08-05T03:51:04.443Z,99.90
2018-08-05T03:54:14.546Z,99.90
2018-08-05T03:57:25.165Z,99.90
2018-08-05T04:00:35.138Z,99.90
2018-08-05T04:03:46.179Z,99.90
2018-08-05T04:06:56.199Z,99.90
2018-08-05T04:10:06.917Z,99.90
2018-08-05T04:13:18.155Z,99.90
2018-08-05T04:16:28.226Z,99.90
2018-08-05T04:19:38.352Z,99.90
2018-08-05T04:22:49.222Z,99.90
2018-08-05T04:25:59.292Z,99.90
2018-08-05T04:29:10.009Z,99.90
2018-08-05T04:32:20.074Z,99.90
2018-08-05T04:35:30.308Z,99.90
2018-08-05T04:38:40.720Z,99.90
2018-08-05T04:41:51.246Z,99.90
2018-08-05T04:45:01.482Z,99.90
2018-08-05T04:48:12.494Z,99.90
2018-08-05T04:51:22.518Z,99.90
2018-08-05T04:54:33.304Z,99.90
2018-08-05T04:57:43.864Z,99.90
2018-08-05T05:00:53.816Z,99.90
2018-08-05T05:04:04.177Z,99.90
2018-08-05T05:07:14.989Z,99.90
2018-08-05T05:10:25.498Z,99.90
2018-08-05T05:13:35.887Z,99.90
2018-08-05T05:16:46.767Z,99.90
2018-08-05T05:19:57.356Z,99.90
2018-08-05T05:23:08.395Z,99.90
2018-08-05T05:26:18.611Z,99.90
2018-08-05T05:29:28.722Z,99.90
2018-08-05T05:32:39.068Z,99.90
2018-08-05T05:35:49.630Z,99.90
2018-08-05T05:39:00.424Z,99.90
2018-08-05T05:42:10.789Z,99.90
2018-08-05T05:45:21.208Z,99.90
2018-08-05T05:48:31.427Z,99.90
2018-08-05T05:51:41.622Z,99.90
2018-08-05T05:54:52.770Z,99.90
2018-08-05T05:58:03.279Z,99.90
2018-08-05T06:01:13.545Z,99.90
2018-08-05T06:04:23.604Z,99.90
2018-08-05T06:07:34.600Z,99.90
2018-08-05T06:10:45.573Z,99.90
2018-08-05T06:13:57.613Z,99.90
2018-08-05T06:17:08.782Z,99.90
2018-08-05T06:20:18.686Z,99.90
2018-08-05T06:23:29.372Z,99.90
2018-08-05T06:26:39.657Z,99.90
2018-08-05T06:29:50.289Z,99.90
2018-08-05T06:33:00.727Z,99.90
2018-08-05T06:36:11.515Z,99.90
2018-08-05T06:39:22.040Z,99.90
2018-08-05T06:42:34.514Z,99.90
2018-08-05T06:45:45.388Z,99.90
2018-08-05T06:48:56.317Z,99.90
2018-08-05T06:52:07.037Z,99.90
2018-08-05T06:55:17.722Z,99.90
2018-08-05T06:58:28.327Z,99.90
2018-08-05T07:01:38.759Z,99.90
2018-08-05T07:04:49.156Z,99.90
2018-08-05T07:08:00.039Z,99.90
2018-08-05T07:11:10.391Z,99.90
2018-08-05T07:14:21.210Z,99.90
2018-08-05T07:17:32.044Z,99.90
2018-08-05T07:20:43.255Z,99.90
2018-08-05T07:23:53.990Z,99.90
2018-08-05T07:27:04.452Z,99.90
2018-08-05T07:30:15.031Z,99.90
2018-08-05T07:33:25.714Z,99.90
2018-08-05T07:36:37.672Z,99.90
2018-08-05T07:39:48.287Z,99.90
2018-08-05T07:42:58.843Z,99.90
2018-08-05T07:46:10.723Z,99.90
2018-08-05T07:49:22.193Z,99.90
2018-08-05T07:52:33.357Z,99.90
2018-08-05T07:55:43.315Z,99.90
2018-08-05T07:58:53.389Z,99.90
2018-08-05T08:02:04.441Z,99.90
2018-08-05T08:05:15.709Z,99.90
2018-08-05T08:08:26.277Z,99.90
2018-08-05T08:11:37.223Z,99.90
2018-08-05T08:14:47.210Z,99.90
2018-08-05T08:17:57.902Z,99.90
2018-08-05T08:21:09.024Z,99.90
2018-08-05T08:24:19.295Z,99.90
2018-08-05T08:27:29.862Z,99.90
2018-08-05T08:30:41.134Z,99.90
2018-08-05T08:33:51.242Z,99.90
2018-08-05T08:37:02.052Z,99.90
2018-08-05T08:40:14.242Z,99.90
2018-08-05T08:43:24.937Z,99.90
2018-08-05T08:46:35.762Z,99.90
2018-08-05T08:49:46.240Z,99.90
2018-08-05T08:52:56.464Z,99.90
2018-08-05T08:56:06.696Z,99.90
2018-08-05T08:59:17.689Z,99.90
2018-08-05T09:02:28.518Z,99.90
2018-08-05T09:05:38.669Z,99.90
2018-08-05T09:08:49.475Z,99.90
2018-08-05T09:12:00.039Z,99.90
2018-08-05T09:15:10.670Z,99.90
2018-08-05T09:18:20.928Z,99.90
2018-08-05T09:21:31.433Z,99.90
2018-08-05T09:24:41.372Z,99.90
2018-08-05T09:27:51.906Z,99.90
2018-08-05T09:31:01.706Z,99.90
2018-08-05T09:34:12.602Z,99.90
2018-08-05T09:37:23.374Z,99.90
2018-08-05T09:40:33.554Z,99.90
2018-08-05T09:43:44.300Z,99.90
2018-08-05T09:46:54.788Z,99.90
2018-08-05T09:50:05.377Z,99.90
2018-08-05T09:53:16.583Z,99.90
2018-08-05T09:56:27.038Z,99.90
2018-08-05T09:59:37.075Z,99.90
2018-08-05T10:02:47.563Z,99.90
2018-08-05T10:05:57.794Z,99.90
2018-08-05T10:09:09.530Z,99.90
2018-08-05T10:12:19.663Z,99.90
2018-08-05T10:15:29.886Z,99.90
2018-08-05T10:18:40.619Z,99.90
2018-08-05T10:21:52.198Z,99.90
2018-08-05T10:25:02.082Z,99.90
2018-08-05T10:28:12.062Z,99.90
2018-08-05T10:31:21.995Z,99.90
2018-08-05T10:34:31.909Z,99.90
2018-08-05T10:37:42.493Z,99.90
2018-08-05T10:40:52.462Z,99.90
2018-08-05T10:44:02.062Z,99.90
2018-08-05T10:47:12.618Z,99.90
2018-08-05T10:50:24.457Z,99.90
2018-08-05T10:53:35.629Z,99.90
2018-08-05T10:56:46.223Z,99.90
2018-08-05T10:59:56.001Z,99.90
2018-08-05T11:03:06.257Z,99.90
2018-08-05T11:06:16.102Z,99.90
2018-08-05T11:09:26.485Z,99.90
2018-08-05T11:12:36.550Z,99.90
2018-08-05T11:15:46.659Z,99.90
2018-08-05T11:18:56.426Z,99.90
2018-08-05T11:22:07.667Z,99.90
2018-08-05T11:25:18.353Z,99.90
2018-08-05T11:28:29.211Z,99.90
2018-08-05T11:31:39.387Z,99.90
2018-08-05T11:34:49.598Z,99.90
2018-08-05T11:37:59.489Z,99.90
2018-08-05T11:41:10.137Z,99.90
2018-08-05T11:44:23.033Z,99.90
2018-08-05T11:47:32.916Z,99.90
2018-08-05T11:50:43.530Z,99.90
2018-08-05T11:53:54.186Z,99.90
2018-08-05T11:57:04.471Z,99.90
2018-08-05T12:00:14.940Z,99.90
2018-08-05T12:03:24.800Z,99.90
2018-08-05T12:06:35.183Z,99.90
2018-08-05T12:09:46.223Z,99.90
2018-08-05T12:12:56.953Z,99.90
2018-08-05T12:16:08.077Z,99.90
2018-08-05T12:19:18.654Z,99.90
2018-08-05T12:22:28.782Z,99.90
2018-08-05T12:25:38.787Z,99.90
2018-08-05T12:28:48.825Z,99.90
2018-08-05T12:31:59.104Z,99.90
2018-08-05T12:35:09.614Z,99.90
2018-08-05T12:38:19.730Z,99.90
2018-08-05T12:41:29.536Z,99.90
2018-08-05T12:44:39.853Z,99.90
2018-08-05T12:47:49.908Z,99.90
2018-08-05T12:51:00.010Z,99.90
2018-08-05T12:54:09.730Z,99.90
2018-08-05T12:57:19.510Z,99.90
2018-08-05T13:00:29.444Z,99.90
2018-08-05T13:03:39.787Z,99.90
2018-08-05T13:06:49.530Z,99.90
2018-08-05T13:09:59.388Z,99.90
2018-08-05T13:13:09.888Z,99.90
2018-08-05T13:16:20.328Z,99.90
2018-08-05T13:19:30.207Z,99.90
2018-08-05T13:22:41.113Z,99.90
2018-08-05T13:25:50.761Z,99.90
2018-08-05T13:29:01.396Z,99.90
2018-08-05T13:32:11.536Z,99.90
2018-08-05T13:35:21.519Z,99.90
2018-08-05T13:38:32.296Z,99.90
2018-08-05T13:41:42.426Z,99.90
2018-08-05T13:44:52.640Z,99.90
2018-08-05T13:48:03.011Z,99.90
2018-08-05T13:51:14.179Z,99.90
2018-08-05T13:54:24.191Z,99.90
2018-08-05T13:57:34.993Z,99.90
2018-08-05T14:00:44.933Z,99.90
2018-08-05T14:03:55.491Z,99.90
2018-08-05T14:07:06.410Z,99.90
2018-08-05T14:10:16.678Z,99.90
2018-08-05T14:13:27.116Z,99.90
2018-08-05T14:19:47.582Z,99.90
2018-08-05T14:22:57.520Z,99.90
2018-08-05T14:26:07.966Z,99.90
2018-08-05T14:29:18.384Z,99.90
2018-08-05T14:32:28.893Z,99.90
2018-08-05T14:35:39.061Z,99.90
2018-08-05T14:38:49.572Z,99.90
2018-08-05T14:41:59.463Z,99.90
2018-08-05T14:45:10.043Z,99.90
2018-08-05T14:48:19.938Z,99.70
2018-08-05T14:51:31.554Z,99.20
2018-08-05T14:54:41.822Z,99.20
2018-08-05T14:57:51.663Z,98.60
2018-08-05T15:01:02.317Z,99.40
2018-08-05T15:04:12.714Z,98.70
2018-08-05T15:07:23.147Z,97.60
2018-08-05T15:10:34.636Z,97.70
2018-08-05T15:13:45.201Z,97.50
2018-08-05T15:16:55.083Z,97.80
2018-08-05T15:20:05.386Z,97.40
2018-08-05T15:23:15.716Z,96.50
2018-08-05T15:26:26.047Z,96.80
2018-08-05T15:29:36.008Z,96.70
2018-08-05T15:32:46.377Z,97.10
2018-08-05T15:35:56.511Z,97.10
2018-08-05T15:39:08.223Z,97.50
2018-08-05T15:42:18.831Z,97.40
2018-08-05T15:45:28.726Z,96.80
2018-08-05T15:48:38.724Z,97.70
2018-08-05T15:51:49.614Z,97.20
2018-08-05T15:55:00.055Z,97.50
2018-08-05T15:58:09.889Z,97.30
2018-08-05T16:01:20.418Z,96.50
2018-08-05T16:04:31.011Z,96.60
2018-08-05T16:07:41.397Z,96.60
2018-08-05T16:10:51.853Z,96.30
2018-08-05T16:14:01.658Z,95.40
2018-08-05T16:17:11.353Z,95.70
2018-08-05T16:20:21.865Z,96.50
2018-08-05T16:23:31.658Z,95.80
2018-08-05T16:26:42.159Z,96.00
2018-08-05T16:29:52.210Z,96.10
2018-08-05T16:33:02.202Z,96.20
2018-08-05T16:39:22.365Z,96.10
2018-08-05T16:42:32.912Z,96.00
2018-08-05T16:45:42.950Z,95.90
2018-08-05T16:48:53.273Z,95.70
2018-08-05T16:52:04.860Z,95.60
2018-08-05T16:55:35.593Z,96.00
2018-08-05T17:01:56.967Z,96.10
2018-08-05T17:05:09.181Z,96.30
2018-08-05T17:08:21.218Z,96.00
2018-08-05T17:11:31.326Z,96.60
2018-08-05T17:14:42.778Z,96.20
2018-08-05T17:17:53.792Z,96.20
2018-08-05T17:21:04.024Z,96.40
2018-08-05T17:24:14.425Z,96.50
2018-08-05T17:27:26.934Z,96.80
2018-08-05T17:30:37.550Z,96.50
2018-08-05T17:33:48.108Z,96.60
2018-08-05T17:36:58.476Z,97.40
2018-08-05T17:40:08.416Z,97.50
2018-08-05T17:43:19.235Z,97.10
2018-08-05T17:46:29.703Z,97.00
2018-08-05T17:49:40.144Z,96.90
2018-08-05T17:52:50.556Z,97.40
2018-08-05T17:56:01.045Z,96.70
2018-08-05T17:59:11.736Z,96.70
2018-08-05T18:02:22.028Z,96.70
2018-08-05T18:05:32.456Z,96.80
2018-08-05T18:08:42.960Z,97.30
2018-08-05T18:11:53.068Z,97.50
2018-08-05T18:15:03.294Z,97.30
2018-08-05T18:18:26.885Z,96.90
2018-08-05T18:21:37.210Z,97.00
2018-08-05T18:24:47.777Z,96.80
2018-08-05T18:27:58.416Z,97.10
2018-08-05T18:31:08.391Z,96.70
2018-08-05T18:34:18.752Z,97.10
2018-08-05T18:37:28.854Z,97.00
2018-08-05T18:40:40.041Z,97.50
2018-08-05T18:43:50.525Z,97.40
2018-08-05T18:47:01.705Z,97.60
2018-08-05T18:50:12.260Z,97.90
2018-08-05T18:53:23.520Z,99.00
2018-08-05T18:56:33.723Z,99.00
2018-08-05T18:59:44.160Z,99.90
2018-08-05T19:02:55.894Z,99.10
2018-08-05T19:06:09.189Z,99.90
2018-08-05T19:09:20.124Z,99.90
2018-08-05T19:12:31.101Z,99.90
2018-08-05T19:15:44.352Z,99.90
2018-08-05T19:18:55.430Z,99.90
2018-08-05T19:22:05.907Z,99.90
2018-08-05T19:25:16.104Z,99.90
2018-08-05T19:28:26.127Z,99.90
2018-08-05T19:31:37.083Z,99.90
2018-08-05T19:34:48.568Z,99.90
2018-08-05T19:37:59.283Z,99.90
2018-08-05T19:41:09.766Z,99.90
2018-08-05T19:44:20.337Z,99.90
2018-08-05T19:47:31.500Z,99.90
2018-08-05T19:50:55.368Z,99.90
2018-08-05T19:54:26.154Z,99.90
2018-08-05T19:57:43.524Z,99.90
2018-08-05T20:00:55.576Z,99.90
2018-08-05T20:04:08.679Z,99.90
2018-08-05T20:07:19.163Z,99.90
2018-08-05T20:10:31.616Z,99.90
2018-08-05T20:13:42.921Z,99.90
2018-08-05T20:16:53.564Z,99.90
2018-08-05T20:20:03.967Z,99.90
2018-08-05T20:23:17.330Z,99.90
2018-08-05T20:26:27.875Z,99.90
2018-08-05T20:29:37.940Z,99.90
2018-08-05T20:32:47.952Z,99.90
2018-08-05T20:35:58.465Z,99.90
2018-08-05T20:39:10.682Z,99.90
2018-08-05T20:42:20.993Z,99.90
2018-08-05T20:45:32.143Z,99.90
2018-08-05T20:48:42.451Z,99.90
2018-08-05T20:51:53.040Z,99.90
2018-08-05T20:55:04.271Z,99.90
2018-08-05T20:58:14.300Z,99.90
2018-08-05T21:01:24.515Z,99.90
2018-08-05T21:07:45.162Z,99.90
2018-08-05T21:10:55.810Z,99.90
2018-08-05T21:14:06.935Z,99.90
2018-08-05T21:17:17.200Z,99.90
2018-08-05T21:20:28.440Z,99.90
2018-08-05T21:23:38.996Z,99.90
2018-08-05T21:26:49.600Z,99.90
2018-08-05T21:30:00.507Z,99.90
2018-08-05T21:33:11.082Z,99.90
2018-08-05T21:36:21.996Z,99.90
2018-08-05T21:39:32.605Z,99.90
2018-08-05T21:42:43.021Z,99.90
2018-08-05T21:45:53.780Z,99.90
2018-08-05T21:49:04.840Z,99.90
2018-08-05T21:52:14.847Z,99.90
2018-08-05T21:55:25.533Z,99.90
2018-08-05T21:58:35.825Z,99.90
2018-08-05T22:01:46.201Z,99.90
2018-08-05T22:04:56.548Z,99.90
2018-08-05T22:08:07.227Z,99.90
2018-08-05T22:11:18.032Z,99.90
2018-08-05T22:14:28.193Z,99.90
2018-08-05T22:17:39.590Z,99.90
2018-08-05T22:20:50.532Z,99.90
2018-08-05T22:27:11.776Z,99.90
2018-08-05T22:30:22.141Z,99.90
2018-08-05T22:33:33.021Z,99.90
2018-08-05T22:36:43.732Z,99.90
2018-08-05T22:39:54.792Z,99.90
2018-08-05T22:43:05.401Z,99.90
2018-08-05T22:46:16.254Z,99.90
2018-08-05T22:49:26.584Z,99.90
2018-08-05T22:52:38.035Z,99.90
2018-08-05T22:55:48.663Z,99.90
2018-08-05T22:58:58.742Z,99.90
2018-08-05T23:02:09.829Z,99.90
2018-08-05T23:05:19.834Z,99.90
2018-08-05T23:08:30.527Z,99.90
2018-08-05T23:11:41.086Z,99.90
2018-08-05T23:14:51.894Z,99.90
2018-08-05T23:18:02.307Z,99.90
2018-08-05T23:21:12.739Z,99.90
2018-08-05T23:24:22.835Z,99.90
2018-08-05T23:27:33.160Z,99.90
2018-08-05T23:30:43.866Z,99.90
2018-08-05T23:33:54.522Z,99.90
2018-08-05T23:37:04.844Z,99.90
2018-08-05T23:40:17.411Z,99.90
2018-08-05T23:43:27.934Z,99.90
2018-08-05T23:46:38.622Z,99.90
2018-08-05T23:49:48.687Z,99.90
2018-08-05T23:52:58.954Z,99.90
2018-08-05T23:56:10.439Z,99.90
2018-08-05T23:59:20.992Z,99.90
